Time;durP1;ratioP1;P1;durP2;ratioP2;P2;SDS_P1;SDS_P2;PMS_P1;PMS_P2;Temp;Humidity;BMP_temperature;BMP_pressure;BME280_temperature;BME280_humidity;BME280_pressure;Samples;Min_cycle;Max_cycle;Signal;HPM_P1;HPM_P2
2021/01/13 00:02:20;;;;;;;114.27;61.07;;;0.20;99.90;;;;;;5089833;28;20181;-79
2021/01/13 00:04:46;;;;;;;117.33;63.30;;;0.30;99.90;;;;;;5088711;28;20540;-79
2021/01/13 00:07:13;;;;;;;114.57;60.27;;;0.30;99.90;;;;;;5121239;28;20253;-79
2021/01/13 00:09:38;;;;;;;111.95;59.50;;;0.20;99.90;;;;;;5066858;28;20189;-79
2021/01/13 00:12:04;;;;;;;107.70;60.23;;;0.20;99.90;;;;;;5069169;28;20188;-79
2021/01/13 00:14:30;;;;;;;106.32;58.95;;;0.20;99.90;;;;;;5085857;28;20209;-79
2021/01/13 00:16:55;;;;;;;104.40;56.53;;;0.20;99.90;;;;;;5085839;28;20219;-79
2021/01/13 00:19:21;;;;;;;95.20;55.13;;;0.10;99.90;;;;;;5106522;28;20188;-79
2021/01/13 00:21:48;;;;;;;94.40;56.73;;;0.10;99.90;;;;;;5107629;28;20196;-79
2021/01/13 00:24:14;;;;;;;97.93;56.53;;;0.00;99.90;;;;;;5066246;28;20261;-79
2021/01/13 00:26:40;;;;;;;104.05;60.53;;;0.10;99.90;;;;;;5083521;28;20205;-79
2021/01/13 00:29:07;;;;;;;103.32;57.78;;;0.10;99.90;;;;;;5083101;28;20248;-79
2021/01/13 00:31:32;;;;;;;108.50;60.47;;;0.20;99.90;;;;;;5086337;28;20254;-79
2021/01/13 00:33:58;;;;;;;101.53;57.30;;;0.20;99.90;;;;;;5087023;28;20208;-79
2021/01/13 00:36:29;;;;;;;111.63;66.07;;;0.00;99.90;;;;;;5083437;28;20288;-79
2021/01/13 00:38:54;;;;;;;116.13;64.05;;;0.00;99.90;;;;;;5083632;28;20492;-79
2021/01/13 00:41:20;;;;;;;114.03;59.60;;;0.10;99.90;;;;;;5102403;28;20216;-79
2021/01/13 00:43:50;;;;;;;113.57;63.57;;;0.00;99.90;;;;;;5124174;28;20184;-79
2021/01/13 00:46:16;;;;;;;102.25;54.58;;;0.00;99.90;;;;;;5108159;28;20202;-79
2021/01/13 00:48:42;;;;;;;120.78;67.38;;;0.00;99.90;;;;;;5106186;28;20183;-79
2021/01/13 00:51:07;;;;;;;116.97;61.80;;;0.00;99.90;;;;;;5125679;28;20294;-80
2021/01/13 00:53:33;;;;;;;114.40;58.70;;;0.10;99.90;;;;;;5128148;28;20257;-79
2021/01/13 00:55:58;;;;;;;115.67;62.30;;;0.10;99.90;;;;;;5109018;28;20257;-79
2021/01/13 00:58:24;;;;;;;130.40;68.83;;;0.00;99.90;;;;;;5114433;28;20215;-79
2021/01/13 01:00:50;;;;;;;131.77;66.90;;;0.10;99.90;;;;;;5116504;28;20191;-79
2021/01/13 01:03:19;;;;;;;153.05;81.38;;;0.10;99.90;;;;;;5083710;28;20193;-79
2021/01/13 01:05:45;;;;;;;137.02;81.82;;;0.00;99.90;;;;;;5084303;28;20203;-79
2021/01/13 01:08:10;;;;;;;129.20;63.33;;;0.00;99.90;;;;;;5105739;28;20691;-79
2021/01/13 01:10:38;;;;;;;124.50;64.43;;;0.00;99.90;;;;;;5125622;28;20327;-79
2021/01/13 01:13:04;;;;;;;128.02;69.32;;;-0.10;99.90;;;;;;5102684;28;20189;-79
2021/01/13 01:15:30;;;;;;;120.65;65.55;;;0.10;99.90;;;;;;5111414;28;20237;-79
2021/01/13 01:17:55;;;;;;;126.20;64.30;;;0.10;99.90;;;;;;5116198;28;20197;-79
2021/01/13 01:20:21;;;;;;;110.27;60.43;;;0.10;99.90;;;;;;5087281;28;20196;-79
2021/01/13 01:22:54;;;;;;;121.30;66.80;;;0.10;99.90;;;;;;5106194;28;20252;-79
2021/01/13 01:25:21;;;;;;;124.32;68.97;;;0.10;99.90;;;;;;5106820;28;20181;-80
2021/01/13 01:27:48;;;;;;;126.40;66.70;;;0.10;99.90;;;;;;5105229;28;20637;-79
2021/01/13 01:30:14;;;;;;;115.82;58.13;;;0.00;99.90;;;;;;5087048;28;20197;-80
2021/01/13 01:32:39;;;;;;;116.43;63.00;;;-0.10;99.90;;;;;;5081591;28;20533;-79
2021/01/13 01:35:06;;;;;;;113.50;65.03;;;-0.10;99.90;;;;;;5069748;28;20271;-79
2021/01/13 01:37:35;;;;;;;117.13;67.47;;;-0.10;99.90;;;;;;5073186;28;20184;-79
2021/01/13 01:40:07;;;;;;;124.85;68.15;;;-0.10;99.90;;;;;;5088589;28;20188;-79
2021/01/13 01:42:33;;;;;;;128.65;68.85;;;-0.20;99.90;;;;;;5112265;28;20175;-79
2021/01/13 01:44:58;;;;;;;115.03;69.73;;;-0.10;99.90;;;;;;5108642;28;20195;-79
2021/01/13 01:47:38;;;;;;;121.03;71.50;;;0.00;99.90;;;;;;5122419;28;20402;-79
2021/01/13 01:50:05;;;;;;;127.30;63.20;;;0.10;99.90;;;;;;5093454;28;20231;-79
2021/01/13 01:52:30;;;;;;;119.75;61.45;;;0.10;99.90;;;;;;5125337;28;20197;-79
2021/01/13 01:55:02;;;;;;;133.30;75.37;;;0.30;99.90;;;;;;5111793;28;20216;-79
2021/01/13 01:57:34;;;;;;;117.88;67.63;;;0.20;99.90;;;;;;5093819;28;20285;-79
2021/01/13 02:00:01;;;;;;;119.68;66.40;;;0.10;99.90;;;;;;5102406;28;20279;-79
2021/01/13 02:02:38;;;;;;;131.25;65.28;;;0.20;99.90;;;;;;5115104;28;20204;-79
2021/01/13 02:05:07;;;;;;;114.43;63.88;;;0.30;99.90;;;;;;5126404;28;20596;-79
2021/01/13 02:07:33;;;;;;;117.38;63.92;;;0.30;99.90;;;;;;5107024;28;20194;-79
2021/01/13 02:10:02;;;;;;;112.78;61.03;;;0.30;99.90;;;;;;5108115;28;20191;-80
2021/01/13 02:12:31;;;;;;;107.93;59.72;;;0.30;99.90;;;;;;5108024;28;20573;-79
2021/01/13 02:14:58;;;;;;;115.28;60.55;;;0.40;99.90;;;;;;5107666;28;20663;-79
2021/01/13 02:17:35;;;;;;;129.05;67.50;;;0.30;99.90;;;;;;5124857;28;20589;-79
2021/01/13 02:20:14;;;;;;;126.13;68.03;;;0.30;99.90;;;;;;5122405;28;20179;-79
2021/01/13 02:23:08;;;;;;;128.70;71.63;;;0.30;99.90;;;;;;5121882;28;20272;-79
2021/01/13 02:25:58;;;;;;;129.88;63.35;;;0.30;99.90;;;;;;5105822;28;20192;-79
2021/01/13 02:28:26;;;;;;;116.85;63.63;;;0.20;99.90;;;;;;5106140;28;20203;-79
2021/01/13 02:31:12;;;;;;;120.78;64.85;;;0.10;99.90;;;;;;5128562;28;20188;-79
2021/01/13 02:34:08;;;;;;;129.75;64.60;;;0.10;99.90;;;;;;5127920;28;20671;-79
2021/01/13 02:36:33;;;;;;;117.88;61.35;;;0.30;99.90;;;;;;5127415;28;20188;-79
2021/01/13 02:39:01;;;;;;;109.07;58.57;;;0.40;99.90;;;;;;5125488;28;20278;-80
2021/01/13 02:41:29;;;;;;;110.45;61.47;;;0.40;99.90;;;;;;5127905;28;20720;-79
2021/01/13 02:44:06;;;;;;;106.47;60.13;;;0.40;99.90;;;;;;5132370;28;20232;-80
2021/01/13 02:46:51;;;;;;;118.38;66.10;;;0.40;99.90;;;;;;5131408;28;20164;-79
2021/01/13 02:49:28;;;;;;;123.40;63.33;;;0.40;99.90;;;;;;5131038;28;20195;-79
2021/01/13 02:51:56;;;;;;;122.90;66.45;;;0.40;99.90;;;;;;5102360;28;20291;-79
2021/01/13 02:54:27;;;;;;;115.72;63.35;;;0.30;99.90;;;;;;5112748;28;20325;-80
2021/01/13 02:57:03;;;;;;;129.95;69.22;;;0.30;99.90;;;;;;5125521;28;20227;-79
2021/01/13 02:59:29;;;;;;;124.70;67.93;;;0.30;99.90;;;;;;5110522;28;20184;-79
2021/01/13 03:01:55;;;;;;;103.75;56.92;;;0.30;99.90;;;;;;5110525;28;20224;-79
2021/01/13 03:04:21;;;;;;;119.93;62.60;;;0.20;99.90;;;;;;5109821;28;20177;-79
2021/01/13 03:06:47;;;;;;;119.90;63.57;;;0.30;99.90;;;;;;5110388;28;20196;-79
2021/01/13 03:09:13;;;;;;;112.32;63.20;;;0.30;99.90;;;;;;5111696;28;20223;-79
2021/01/13 03:11:40;;;;;;;118.00;64.50;;;0.30;99.90;;;;;;5106864;28;20237;-79
2021/01/13 03:14:18;;;;;;;127.85;66.63;;;0.30;99.90;;;;;;5089415;28;20189;-79
2021/01/13 03:16:46;;;;;;;104.22;57.40;;;0.00;99.90;;;;;;5073762;28;20212;-79
2021/01/13 03:19:42;;;;;;;115.40;63.13;;;0.00;99.90;;;;;;5091149;28;20197;-79
2021/01/13 03:22:17;;;;;;;109.07;58.38;;;0.00;99.90;;;;;;5083018;28;20213;-79
2021/01/13 03:25:04;;;;;;;121.43;67.68;;;-0.10;99.90;;;;;;5072197;28;20267;-79
2021/01/13 03:27:33;;;;;;;121.93;65.38;;;0.00;99.90;;;;;;5108915;28;20565;-79
2021/01/13 03:30:02;;;;;;;117.28;57.75;;;0.00;99.90;;;;;;5107860;28;20599;-79
2021/01/13 03:32:52;;;;;;;109.05;57.90;;;-0.10;99.90;;;;;;5107714;28;20184;-79
2021/01/13 03:35:22;;;;;;;116.18;62.53;;;-0.20;99.90;;;;;;5078630;28;20311;-79
2021/01/13 03:38:00;;;;;;;102.28;59.22;;;-0.10;99.90;;;;;;5118510;28;20192;-79
2021/01/13 03:40:31;;;;;;;117.18;57.85;;;-0.10;99.90;;;;;;5108481;28;20211;-79
2021/01/13 03:42:59;;;;;;;112.85;62.00;;;-0.10;99.90;;;;;;5106079;28;20181;-79
2021/01/13 03:45:30;;;;;;;111.50;59.67;;;-0.20;99.90;;;;;;5089101;28;20656;-79
2021/01/13 03:48:17;;;;;;;114.10;63.70;;;-0.10;99.90;;;;;;5105550;28;20188;-79
2021/01/13 03:50:45;;;;;;;107.43;61.38;;;-0.10;99.90;;;;;;5105969;28;20220;-79
2021/01/13 03:53:14;;;;;;;114.63;58.22;;;-0.10;99.90;;;;;;5110759;28;20207;-79
2021/01/13 03:55:42;;;;;;;105.22;60.22;;;-0.10;99.90;;;;;;5108529;28;20208;-79
2021/01/13 03:58:15;;;;;;;114.80;57.97;;;0.00;99.90;;;;;;5104529;28;20190;-79
2021/01/13 04:00:46;;;;;;;107.60;59.80;;;0.00;99.90;;;;;;5129344;28;20191;-80
2021/01/13 04:03:25;;;;;;;105.38;55.60;;;-0.10;99.90;;;;;;5108751;28;20274;-80
2021/01/13 04:06:06;;;;;;;110.30;59.60;;;0.00;99.90;;;;;;5125966;28;20183;-79
2021/01/13 04:08:39;;;;;;;112.50;55.97;;;0.10;99.90;;;;;;5107890;28;20677;-79
2021/01/13 04:11:08;;;;;;;98.35;56.28;;;0.10;99.90;;;;;;5087257;28;20191;-79
2021/01/13 04:13:38;;;;;;;108.00;59.63;;;0.10;99.90;;;;;;5124329;28;20199;-79
2021/01/13 04:16:04;;;;;;;113.45;58.70;;;0.10;99.90;;;;;;5106011;28;20252;-79
2021/01/13 04:18:30;;;;;;;105.07;61.22;;;-0.10;99.90;;;;;;5107264;28;20190;-79
2021/01/13 04:20:56;;;;;;;106.03;57.40;;;0.10;99.90;;;;;;5125713;28;20634;-79
2021/01/13 04:23:23;;;;;;;117.15;60.60;;;0.10;99.90;;;;;;5109871;28;20440;-79
2021/01/13 04:25:49;;;;;;;140.40;65.78;;;0.10;99.90;;;;;;5128656;28;20184;-79
2021/01/13 04:28:15;;;;;;;135.88;65.18;;;0.10;99.90;;;;;;5109329;28;20344;-79
2021/01/13 04:30:42;;;;;;;131.53;69.83;;;0.20;99.90;;;;;;5109410;28;20643;-79
2021/01/13 04:33:08;;;;;;;144.23;77.40;;;0.10;99.90;;;;;;5127033;28;20729;-79
2021/01/13 04:35:34;;;;;;;115.63;62.90;;;0.10;99.90;;;;;;5128513;28;20222;-79
2021/01/13 04:38:03;;;;;;;125.00;66.85;;;0.20;99.90;;;;;;5127837;28;20202;-79
2021/01/13 04:40:35;;;;;;;110.78;58.53;;;0.30;99.90;;;;;;5110563;28;20209;-79
2021/01/13 04:43:07;;;;;;;92.30;51.00;;;0.40;99.90;;;;;;5109151;28;20255;-79
2021/01/13 04:45:45;;;;;;;105.57;53.72;;;0.50;99.90;;;;;;5129185;28;20188;-79
2021/01/13 04:48:12;;;;;;;131.00;66.20;;;0.50;99.90;;;;;;5128776;28;20183;-79
2021/01/13 04:50:40;;;;;;;102.15;57.28;;;0.50;99.90;;;;;;5116197;28;20700;-79
2021/01/13 04:53:22;;;;;;;107.25;66.65;;;0.60;99.90;;;;;;5107596;28;20192;-79
2021/01/13 04:55:50;;;;;;;159.20;99.30;;;0.50;99.90;;;;;;5107109;28;20660;-79
2021/01/13 04:58:34;;;;;;;126.35;71.18;;;0.50;99.90;;;;;;5087423;28;20195;-79
2021/01/13 05:01:31;;;;;;;110.10;63.53;;;0.50;99.90;;;;;;5087859;28;20180;-79
2021/01/13 05:04:07;;;;;;;105.38;58.42;;;0.40;99.90;;;;;;5076943;28;20213;-79
2021/01/13 05:06:39;;;;;;;100.10;57.33;;;0.50;99.90;;;;;;5088621;28;20169;-79
2021/01/13 05:09:07;;;;;;;98.43;51.13;;;0.60;99.90;;;;;;5088126;28;20199;-79
2021/01/13 05:11:47;;;;;;;93.68;50.67;;;0.60;99.90;;;;;;5087126;28;20184;-79
2021/01/13 05:14:14;;;;;;;93.18;52.88;;;0.60;99.90;;;;;;5087610;28;20219;-80
2021/01/13 05:17:02;;;;;;;93.35;51.05;;;0.70;99.90;;;;;;5087680;28;20228;-80
2021/01/13 05:20:05;;;;;;;93.00;52.25;;;0.80;99.90;;;;;;5105365;28;20270;-79
2021/01/13 05:22:35;;;;;;;109.28;60.08;;;0.90;99.90;;;;;;5087502;28;20214;-79
2021/01/13 05:25:07;;;;;;;76.53;42.83;;;0.80;99.90;;;;;;5104112;28;20613;-79
2021/01/13 05:27:44;;;;;;;77.97;44.25;;;0.80;99.90;;;;;;5104964;28;20200;-80
2021/01/13 05:30:11;;;;;;;83.63;45.38;;;0.90;99.90;;;;;;5090567;28;20176;-79
2021/01/13 05:32:40;;;;;;;74.05;44.65;;;1.00;99.90;;;;;;5089456;28;20218;-79
2021/01/13 05:35:07;;;;;;;76.72;44.05;;;1.00;99.90;;;;;;5090447;28;20271;-79
2021/01/13 05:37:47;;;;;;;80.85;44.75;;;1.00;99.90;;;;;;5110242;28;20554;-79
2021/01/13 05:40:17;;;;;;;71.05;40.10;;;1.10;99.90;;;;;;5089623;28;20203;-80
2021/01/13 05:42:43;;;;;;;72.25;40.20;;;1.50;99.90;;;;;;5100178;28;20212;-79
2021/01/13 05:45:12;;;;;;;71.60;41.20;;;1.90;98.40;;;;;;5090529;28;20265;-79
2021/01/13 05:47:55;;;;;;;60.08;37.55;;;2.10;98.20;;;;;;5109520;28;20224;-79
2021/01/13 05:50:24;;;;;;;70.20;42.38;;;2.20;97.00;;;;;;5124358;28;20218;-80
2021/01/13 05:52:52;;;;;;;68.70;40.85;;;1.70;97.70;;;;;;5131345;28;20625;-79
2021/01/13 05:55:20;;;;;;;72.10;40.42;;;1.30;98.70;;;;;;5148609;28;20207;-79
2021/01/13 05:57:54;;;;;;;67.32;41.42;;;1.10;99.50;;;;;;5141757;28;20194;-79
2021/01/13 06:00:21;;;;;;;64.38;40.75;;;0.90;99.90;;;;;;5151485;28;20171;-79
2021/01/13 06:02:47;;;;;;;80.90;43.42;;;0.80;99.90;;;;;;5131454;28;20202;-80
2021/01/13 06:05:14;;;;;;;85.82;53.30;;;0.60;99.90;;;;;;5149722;28;20191;-80
2021/01/13 06:07:42;;;;;;;124.25;78.00;;;0.50;99.90;;;;;;5150108;28;20218;-79
2021/01/13 06:10:08;;;;;;;173.40;105.47;;;0.40;99.90;;;;;;5149379;28;20576;-80
2021/01/13 06:12:45;;;;;;;138.35;86.78;;;0.40;99.90;;;;;;5149091;28;20199;-79
2021/01/13 06:15:13;;;;;;;86.97;54.80;;;0.30;99.90;;;;;;5149217;27;20271;-80
2021/01/13 06:17:49;;;;;;;98.03;60.80;;;0.20;99.90;;;;;;5152527;27;20182;-79
2021/01/13 06:20:20;;;;;;;77.65;48.10;;;0.30;99.90;;;;;;5153224;27;20179;-80
2021/01/13 06:22:48;;;;;;;79.72;48.33;;;0.30;99.90;;;;;;5151436;27;20183;-79
2021/01/13 06:25:30;;;;;;;87.68;54.30;;;0.20;99.90;;;;;;5150684;27;20187;-79
2021/01/13 06:27:58;;;;;;;74.00;43.40;;;0.10;99.90;;;;;;5150335;27;20685;-79
2021/01/13 06:30:31;;;;;;;69.38;41.95;;;0.10;99.90;;;;;;5150937;27;20217;-80
2021/01/13 06:33:10;;;;;;;70.72;41.03;;;0.10;99.90;;;;;;5150819;27;20195;-79
2021/01/13 06:35:41;;;;;;;70.05;43.72;;;0.10;99.90;;;;;;5151892;27;20191;-79
2021/01/13 06:38:22;;;;;;;77.28;45.17;;;0.10;99.90;;;;;;5151052;27;20647;-80
2021/01/13 06:41:03;;;;;;;80.72;45.95;;;0.10;99.90;;;;;;5151191;27;20194;-79
2021/01/13 06:43:29;;;;;;;118.53;76.55;;;0.00;99.90;;;;;;5149790;27;20207;-79
2021/01/13 06:45:56;;;;;;;100.83;59.97;;;0.00;99.90;;;;;;5149262;27;20183;-79
2021/01/13 06:48:26;;;;;;;71.25;44.20;;;-0.10;99.90;;;;;;5150069;27;20416;-80
2021/01/13 06:50:57;;;;;;;74.03;39.67;;;-0.10;99.90;;;;;;5148645;27;20199;-80
2021/01/13 06:53:31;;;;;;;73.05;41.92;;;-0.10;99.90;;;;;;5136424;27;20191;-80
2021/01/13 06:56:10;;;;;;;67.03;43.00;;;-0.10;99.90;;;;;;5128121;28;20204;-80
2021/01/13 06:58:37;;;;;;;60.75;38.42;;;0.00;99.90;;;;;;5146600;27;20210;-80
2021/01/13 07:01:04;;;;;;;65.90;39.78;;;-0.10;99.90;;;;;;5149733;27;20162;-80
2021/01/13 07:03:31;;;;;;;67.75;39.78;;;0.00;99.90;;;;;;5150941;27;20191;-80
2021/01/13 07:06:01;;;;;;;68.60;37.65;;;0.10;99.90;;;;;;5131091;27;20179;-80
2021/01/13 07:08:27;;;;;;;61.38;37.00;;;0.20;99.90;;;;;;5149580;27;20179;-79
2021/01/13 07:11:03;;;;;;;71.28;41.08;;;0.30;99.90;;;;;;5129776;27;20187;-79
2021/01/13 07:13:31;;;;;;;59.50;36.80;;;0.40;99.90;;;;;;5148566;27;20179;-79
2021/01/13 07:16:01;;;;;;;63.85;37.20;;;0.50;99.90;;;;;;5128422;27;20245;-80
2021/01/13 07:18:28;;;;;;;56.28;34.92;;;0.60;99.90;;;;;;5127937;27;20183;-79
2021/01/13 07:20:55;;;;;;;53.72;32.90;;;0.70;99.90;;;;;;5126890;27;20179;-79
2021/01/13 07:23:21;;;;;;;55.72;33.40;;;0.70;99.90;;;;;;5145864;27;20187;-79
2021/01/13 07:25:50;;;;;;;51.38;33.60;;;0.80;99.90;;;;;;5125462;28;20279;-79
2021/01/13 07:28:17;;;;;;;49.58;30.92;;;0.90;99.90;;;;;;5142453;27;20186;-80
2021/01/13 07:30:44;;;;;;;45.92;26.20;;;1.00;99.90;;;;;;5149163;27;20179;-79
2021/01/13 07:33:14;;;;;;;44.30;27.58;;;1.10;99.70;;;;;;5149310;27;20179;-79
2021/01/13 07:35:46;;;;;;;47.08;28.92;;;1.20;99.70;;;;;;5128476;27;20232;-79
2021/01/13 07:38:19;;;;;;;43.38;27.90;;;1.20;99.80;;;;;;5146989;27;20186;-79
2021/01/13 07:41:05;;;;;;;44.88;28.70;;;1.30;99.70;;;;;;5130429;27;20210;-79
2021/01/13 07:44:10;;;;;;;37.50;26.25;;;1.50;99.20;;;;;;5144668;27;20179;-79
2021/01/13 07:46:36;;;;;;;39.63;27.35;;;1.60;98.90;;;;;;5147144;27;20217;-79
2021/01/13 07:49:21;;;;;;;44.10;29.90;;;1.80;98.40;;;;;;5133951;27;20255;-80
2021/01/13 07:51:50;;;;;;;46.60;29.35;;;1.90;98.20;;;;;;5134023;27;20202;-79
2021/01/13 07:54:30;;;;;;;51.30;33.00;;;2.20;97.50;;;;;;5145604;27;20186;-80
2021/01/13 07:56:58;;;;;;;37.05;28.00;;;2.50;96.80;;;;;;5139631;27;20203;-80
2021/01/13 07:59:34;;;;;;;43.65;31.42;;;2.70;96.40;;;;;;5126586;27;20195;-80
2021/01/13 08:02:27;;;;;;;39.53;29.25;;;2.90;95.90;;;;;;5142691;27;20527;-80
2021/01/13 08:04:55;;;;;;;38.28;24.67;;;3.40;94.90;;;;;;5149799;27;20188;-80
2021/01/13 08:07:39;;;;;;;36.53;26.35;;;3.70;93.70;;;;;;5146988;27;20231;-79
2021/01/13 08:10:06;;;;;;;34.70;25.70;;;4.10;92.80;;;;;;5140821;27;20183;-79
2021/01/13 08:12:44;;;;;;;35.50;27.42;;;4.20;92.20;;;;;;5124165;27;20195;-79
2021/01/13 08:15:26;;;;;;;37.47;28.85;;;4.40;91.90;;;;;;5123583;27;20202;-79
2021/01/13 08:18:09;;;;;;;32.67;24.55;;;4.90;90.80;;;;;;5133107;27;20201;-79
2021/01/13 08:21:33;;;;;;;30.55;22.55;;;5.20;90.20;;;;;;5144122;27;20194;-79
2021/01/13 08:26:32;;;;;;;31.27;26.63;;;5.90;86.10;;;;;;5140607;27;20202;-78
2021/01/13 08:29:01;;;;;;;27.50;23.30;;;6.00;84.30;;;;;;5135880;27;20194;-78
2021/01/13 08:31:28;;;;;;;28.63;22.88;;;5.60;84.90;;;;;;5142097;27;20194;-79
2021/01/13 08:34:09;;;;;;;35.38;28.38;;;5.40;87.60;;;;;;5123150;27;20221;-79
2021/01/13 08:36:37;;;;;;;34.75;24.17;;;5.40;87.40;;;;;;5141408;27;20207;-79
2021/01/13 08:39:14;;;;;;;39.15;27.40;;;5.20;89.30;;;;;;5142370;27;20195;-79
2021/01/13 08:41:41;;;;;;;60.75;38.88;;;5.10;89.50;;;;;;5143803;27;20550;-80
2021/01/13 08:44:18;;;;;;;90.85;45.60;;;5.10;89.80;;;;;;5127300;27;20610;-79
2021/01/13 08:47:02;;;;;;;77.95;40.95;;;5.10;90.30;;;;;;5126304;27;20449;-80
2021/01/13 08:49:30;;;;;;;33.88;24.27;;;5.10;89.90;;;;;;5148435;27;20190;-79
2021/01/13 08:52:22;;;;;;;53.97;33.67;;;5.20;90.30;;;;;;5134716;27;20191;-79
2021/01/13 08:54:48;;;;;;;21.98;17.05;;;5.20;90.50;;;;;;5102847;27;20206;-80
2021/01/13 08:57:14;;;;;;;25.77;17.90;;;5.20;90.80;;;;;;5142006;27;20730;-80
2021/01/13 08:59:48;;;;;;;22.63;17.23;;;5.30;90.00;;;;;;5144279;27;20244;-79
2021/01/13 09:02:18;;;;;;;21.48;15.43;;;5.40;89.00;;;;;;5146843;27;20183;-79
2021/01/13 09:04:49;;;;;;;17.80;14.13;;;5.50;87.40;;;;;;5130188;27;20191;-79
2021/01/13 09:07:17;;;;;;;20.55;15.07;;;5.70;86.00;;;;;;5149035;27;20629;-79
2021/01/13 09:10:00;;;;;;;17.15;13.45;;;5.80;85.00;;;;;;5122501;27;20180;-79
2021/01/13 09:12:32;;;;;;;15.98;13.25;;;5.90;85.10;;;;;;5125329;27;20206;-79
2021/01/13 09:15:25;;;;;;;16.73;12.85;;;6.20;81.60;;;;;;5142938;27;20202;-80
2021/01/13 09:17:51;;;;;;;14.48;11.63;;;6.40;79.80;;;;;;5135943;27;20198;-80
2021/01/13 09:20:22;;;;;;;12.23;10.38;;;6.60;77.40;;;;;;5145629;27;20276;-80
2021/01/13 09:22:51;;;;;;;14.23;11.30;;;6.80;76.10;;;;;;5141724;27;20187;-79
2021/01/13 09:25:25;;;;;;;13.38;11.23;;;7.20;74.90;;;;;;5141326;27;20219;-80
2021/01/13 09:27:55;;;;;;;10.85;9.48;;;7.70;72.30;;;;;;5115561;27;20285;-79
2021/01/13 09:30:37;;;;;;;12.73;10.85;;;7.90;67.00;;;;;;5139281;27;20631;-80
2021/01/13 09:33:07;;;;;;;8.30;7.50;;;8.20;64.80;;;;;;5123648;27;20208;-80
2021/01/13 09:35:35;;;;;;;7.13;6.43;;;8.20;63.90;;;;;;5120771;28;20215;-80
2021/01/13 09:38:08;;;;;;;5.07;4.63;;;8.30;62.40;;;;;;5136018;27;20198;-79
2021/01/13 09:40:45;;;;;;;5.30;4.80;;;8.10;62.10;;;;;;5113664;28;20198;-79
2021/01/13 09:43:41;;;;;;;7.57;5.40;;;8.40;61.00;;;;;;5124423;28;20753;-79
2021/01/13 09:46:29;;;;;;;6.95;4.90;;;8.60;60.90;;;;;;5131682;28;20199;-79
2021/01/13 09:48:59;;;;;;;5.13;4.43;;;8.50;61.20;;;;;;5124049;28;20190;-79
2021/01/13 09:51:25;;;;;;;5.05;4.55;;;8.50;60.90;;;;;;5140610;27;20226;-79
2021/01/13 09:53:53;;;;;;;6.10;5.50;;;8.40;62.80;;;;;;5146653;27;20195;-77
2021/01/13 09:57:12;;;;;;;5.57;5.07;;;8.50;63.90;;;;;;5144428;27;20214;-78
2021/01/13 10:03:05;;;;;;;6.05;4.75;;;8.80;60.20;;;;;;5134786;27;20166;-78
2021/01/13 10:06:08;;;;;;;6.25;5.15;;;8.60;61.40;;;;;;5122251;27;20281;-78
2021/01/13 10:08:36;;;;;;;5.75;4.85;;;8.40;61.70;;;;;;5132099;27;20220;-77
2021/01/13 10:11:02;;;;;;;6.97;4.47;;;8.60;62.20;;;;;;5116055;28;20199;-79
2021/01/13 10:13:30;;;;;;;5.53;4.80;;;8.70;61.20;;;;;;5144857;27;20551;-79
2021/01/13 10:16:16;;;;;;;8.15;5.45;;;8.60;62.30;;;;;;5147563;27;20958;-79
2021/01/13 10:19:00;;;;;;;6.47;5.03;;;8.60;64.10;;;;;;5126283;27;20187;-79
2021/01/13 10:21:34;;;;;;;8.30;4.53;;;8.40;62.50;;;;;;5148902;27;20179;-79
2021/01/13 10:27:53;;;;;;;4.65;3.97;;;8.40;62.10;;;;;;5143951;27;20254;-79
2021/01/13 10:30:21;;;;;;;5.20;4.50;;;8.20;62.00;;;;;;5128645;27;20557;-79
2021/01/13 10:33:23;;;;;;;4.57;4.18;;;8.20;60.70;;;;;;5121106;27;20198;-79
2021/01/13 10:39:22;;;;;;;4.78;3.35;;;8.10;62.50;;;;;;5141666;27;20188;-76
2021/01/13 10:45:14;;;;;;;4.18;2.80;;;8.20;62.60;;;;;;5140138;27;20240;-78
2021/01/13 10:47:54;;;;;;;6.20;2.95;;;8.50;60.80;;;;;;5142293;27;20183;-78
2021/01/13 10:50:23;;;;;;;6.00;4.30;;;8.70;59.70;;;;;;5134966;27;20301;-78
2021/01/13 10:53:00;;;;;;;3.75;3.35;;;8.50;61.40;;;;;;5129794;27;20205;-80
2021/01/13 10:55:38;;;;;;;6.32;5.00;;;8.60;60.10;;;;;;5121933;27;20218;-78
2021/01/13 10:58:39;;;;;;;3.83;3.10;;;8.30;61.10;;;;;;5146141;27;20193;-78
2021/01/13 11:01:44;;;;;;;6.75;4.35;;;8.30;60.90;;;;;;5126023;27;20202;-78
2021/01/13 11:07:47;;;;;;;7.47;3.70;;;8.20;62.70;;;;;;5138525;27;20182;-78
2021/01/13 11:10:13;;;;;;;5.88;4.15;;;8.10;62.30;;;;;;5143989;27;20189;-79
2021/01/13 11:12:40;;;;;;;6.47;3.95;;;8.00;62.20;;;;;;5120839;27;20194;-79
2021/01/13 11:15:08;;;;;;;4.68;3.60;;;8.00;62.60;;;;;;5143945;27;20252;-79
2021/01/13 11:17:34;;;;;;;3.85;3.45;;;7.80;62.80;;;;;;5134162;27;20239;-78
2021/01/13 11:20:02;;;;;;;7.15;4.07;;;7.70;63.10;;;;;;5125044;27;20240;-78
2021/01/13 11:22:44;;;;;;;4.47;3.47;;;7.60;62.50;;;;;;5132199;27;20178;-79
2021/01/13 11:25:34;;;;;;;5.20;3.55;;;7.50;61.80;;;;;;5123340;27;20187;-79
2021/01/13 11:28:13;;;;;;;5.07;3.53;;;7.70;62.40;;;;;;5147086;27;20246;-79
2021/01/13 11:30:44;;;;;;;5.93;3.78;;;7.40;63.20;;;;;;5150007;27;20186;-79
2021/01/13 11:33:12;;;;;;;4.40;3.70;;;7.30;63.00;;;;;;5144695;27;20206;-79
2021/01/13 11:35:40;;;;;;;4.60;3.35;;;7.20;63.10;;;;;;5140645;27;20218;-79
2021/01/13 11:38:32;;;;;;;3.15;2.83;;;7.30;62.50;;;;;;5118089;27;20718;-79
2021/01/13 11:41:35;;;;;;;3.97;3.20;;;7.10;63.80;;;;;;5128887;27;20218;-78
2021/01/13 11:44:26;;;;;;;5.95;3.55;;;7.30;64.10;;;;;;5139698;27;20270;-79
2021/01/13 11:47:31;;;;;;;4.90;3.55;;;7.30;64.10;;;;;;5146898;27;20232;-80
2021/01/13 11:50:01;;;;;;;3.47;2.90;;;7.40;64.20;;;;;;5106259;28;20618;-79
2021/01/13 11:52:30;;;;;;;4.70;2.83;;;7.50;66.20;;;;;;5095817;28;20258;-79
2021/01/13 11:54:56;;;;;;;4.10;3.03;;;7.50;65.20;;;;;;5095292;28;20219;-79
2021/01/13 11:57:34;;;;;;;5.75;3.33;;;7.60;63.70;;;;;;5086072;28;20220;-79
2021/01/13 12:00:20;;;;;;;3.13;2.85;;;7.40;63.70;;;;;;5081531;28;20191;-79
2021/01/13 12:02:52;;;;;;;4.25;2.92;;;7.40;64.30;;;;;;5105419;28;20173;-79
2021/01/13 12:05:34;;;;;;;5.20;3.15;;;7.50;64.70;;;;;;5104398;28;20184;-79
2021/01/13 12:08:05;;;;;;;5.38;2.85;;;7.50;64.00;;;;;;5108199;28;20187;-78
2021/01/13 12:10:35;;;;;;;4.95;3.25;;;7.60;63.60;;;;;;5102041;28;20192;-78
2021/01/13 12:13:09;;;;;;;5.75;2.97;;;7.60;62.10;;;;;;5100949;28;20184;-79
2021/01/13 12:16:06;;;;;;;3.90;3.50;;;7.50;63.70;;;;;;5093595;28;20234;-79
2021/01/13 12:18:50;;;;;;;3.10;2.88;;;7.40;64.20;;;;;;5102394;28;20192;-79
2021/01/13 12:21:18;;;;;;;3.78;2.80;;;7.40;64.20;;;;;;5088071;28;20192;-79
2021/01/13 12:23:48;;;;;;;3.47;2.95;;;7.30;64.50;;;;;;5107321;28;20200;-79
2021/01/13 12:26:29;;;;;;;4.68;3.55;;;7.30;64.60;;;;;;5104137;28;20180;-78
2021/01/13 12:29:09;;;;;;;4.60;3.17;;;7.50;64.80;;;;;;5097699;28;20214;-78
2021/01/13 12:31:47;;;;;;;4.85;3.90;;;7.40;64.20;;;;;;5083881;28;20233;-78
2021/01/13 12:34:17;;;;;;;5.25;3.40;;;7.10;64.90;;;;;;5103786;28;20227;-79
2021/01/13 12:36:48;;;;;;;6.60;3.40;;;7.10;65.00;;;;;;5081353;28;20208;-78
2021/01/13 12:39:28;;;;;;;3.13;2.83;;;7.30;65.80;;;;;;5100400;28;20743;-77
2021/01/13 12:41:55;;;;;;;4.57;3.15;;;7.20;64.00;;;;;;5090797;28;20259;-79
2021/01/13 12:44:22;;;;;;;5.28;3.30;;;7.20;64.90;;;;;;5107285;28;20185;-79
2021/01/13 12:47:08;;;;;;;4.90;3.22;;;7.00;66.60;;;;;;5105977;28;20214;-79
2021/01/13 12:49:33;;;;;;;4.70;2.65;;;7.00;67.40;;;;;;5106511;28;20199;-80
2021/01/13 12:52:00;;;;;;;3.73;3.37;;;7.20;66.00;;;;;;5088621;28;20196;-77
2021/01/13 12:54:26;;;;;;;4.90;3.00;;;7.10;66.20;;;;;;5087449;28;20230;-79
2021/01/13 12:56:53;;;;;;;6.93;2.85;;;7.20;66.00;;;;;;5089880;28;20242;-79
2021/01/13 12:59:19;;;;;;;5.10;3.08;;;7.20;64.80;;;;;;5085255;28;20185;-78
2021/01/13 13:01:46;;;;;;;4.68;3.00;;;7.20;64.50;;;;;;5097795;28;20250;-80
2021/01/13 13:04:13;;;;;;;3.63;2.75;;;7.00;65.40;;;;;;5106760;28;20189;-80
2021/01/13 13:06:40;;;;;;;6.85;3.20;;;6.90;64.30;;;;;;5088770;28;20220;-79
2021/01/13 13:09:11;;;;;;;5.35;3.15;;;6.90;64.20;;;;;;5083136;28;20204;-79
2021/01/13 13:11:48;;;;;;;9.38;4.38;;;7.00;65.50;;;;;;5109744;28;20192;-79
2021/01/13 13:14:15;;;;;;;8.52;3.78;;;6.60;67.00;;;;;;5089416;28;20600;-79
2021/01/13 13:16:41;;;;;;;6.95;4.22;;;6.60;66.00;;;;;;5106911;28;21354;-79
2021/01/13 13:19:07;;;;;;;5.50;3.63;;;6.50;66.60;;;;;;5074599;28;20185;-79
2021/01/13 13:21:33;;;;;;;5.47;3.97;;;6.40;66.30;;;;;;5100099;28;20195;-80
2021/01/13 13:23:59;;;;;;;5.83;4.20;;;6.30;66.80;;;;;;5090094;28;20431;-79
2021/01/13 13:26:24;;;;;;;6.40;3.10;;;6.40;67.90;;;;;;5109006;28;20262;-80
2021/01/13 13:28:51;;;;;;;5.00;3.33;;;6.30;66.90;;;;;;5109119;28;20184;-79